Weather History for KADC - April, 2013

Change the Weather History Date:

Friday, April 19, 2013

  Actual Average Record
Temperature  
Mean Temperature 27 °F -  
Max Temperature 33 °F 56 °F 88 °F (1987)
Min Temperature 21 °F 33 °F 17 °F (1988)
Degree Days  
Heating Degree Days 38    
Moisture  
Dew Point 17 °F    
Average Humidity 65    
Maximum Humidity 93    
Minimum Humidity 38    
Precipitation  
Precipitation 0.00 in - - ()
Sea Level Pressure  
Sea Level Pressure 29.77 in    
Wind  
Wind Speed 16 mph (NNW)    
Max Wind Speed 23 mph    
Max Gust Speed 32 mph    
Visibility 9 miles    
Events Snow    
Averages and records for this station are not official NWS values.
T = Trace of Precipitation, MM = Missing Value Source: NWS Daily Summary

Daily Weather History Graph

Daily Weather History Graph

Search for Another Location

Airport or City:

Trip Planner

Search our weather history database for the weather conditions in past years. The results will help you decide how hot, cold, wet, or windy it might be!

Date:

Astronomy

Apr. 19, 2013 Rise Set
Actual Time 6:26 AM CDT 8:14 PM CDT
Civil Twilight 5:54 AM CDT 8:46 PM CDT
Nautical Twilight 5:15 AM CDT 9:25 PM CDT
Astronomical Twilight 4:32 AM CDT 10:08 PM CDT
Moon 1:38 PM CDT (4/19) 3:04 AM CDT (4/19)
Length of Visible Light 14h 52m
Length of Day
13h 48m
First Quarter, 62% of the Moon is Illuminated
Apr 19
First Quarter
Apr 25
Full
May 2
Last Quarter
May 9
New
May 17
First Quarter

Hourly Weather History & Observations

Time (CDT) Temp. Windchill Dew Point Humidity Pressure Visibility Wind Dir Wind Speed Gust Speed Precip Events Conditions
12:15 AM 26.6 °F 14.7 °F 24.8 °F 93% 29.69 in 1.5 mi NNW 15.0 mph 20.7 mph N/A Snow Light Snow
12:34 AM 26.6 °F 14.7 °F 24.8 °F 93% 29.68 in 1.5 mi NNW 15.0 mph - N/A Snow Light Snow
12:53 AM 26.6 °F 13.8 °F 24.8 °F 93% 29.67 in 2.5 mi NNW 17.3 mph - N/A Snow Light Snow
1:15 AM 26.6 °F 14.3 °F 24.8 °F 93% 29.67 in 5.0 mi NNW 16.1 mph 20.7 mph N/A Snow Light Snow
1:35 AM 26.6 °F 15.2 °F 24.8 °F 93% 29.66 in 7.0 mi NNW 13.8 mph - N/A Snow Light Snow
1:53 AM 28.4 °F 17.0 °F 23.0 °F 80% 29.66 in 5.0 mi NNW 15.0 mph 21.9 mph N/A Snow Light Snow
2:14 AM 28.4 °F 17.0 °F 23.0 °F 80% 29.65 in 10.0 mi NNW 15.0 mph 23.0 mph N/A Snow Light Snow
2:35 AM 28.4 °F 15.4 °F 21.2 °F 74% 29.65 in 10.0 mi NNW 19.6 mph 23.0 mph N/A   Overcast
2:53 AM 28.4 °F 16.6 °F 21.2 °F 74% 29.64 in 10.0 mi NNW 16.1 mph 19.6 mph N/A   Overcast
3:15 AM 26.6 °F 14.3 °F 21.2 °F 80% 29.64 in 10.0 mi NNW 16.1 mph 21.9 mph N/A   Overcast
3:35 AM 26.6 °F 14.7 °F 21.2 °F 80% 29.64 in 10.0 mi NNW 15.0 mph 23.0 mph N/A   Overcast
3:53 AM 26.6 °F 14.3 °F 19.4 °F 74% 29.64 in 10.0 mi NNW 16.1 mph 23.0 mph N/A   Overcast
4:15 AM 26.6 °F 13.8 °F 19.4 °F 74% 29.65 in 10.0 mi NNW 17.3 mph 24.2 mph N/A   Overcast
4:35 AM 26.6 °F 14.3 °F 19.4 °F 74% 29.65 in 10.0 mi North 16.1 mph 24.2 mph N/A   Overcast
4:53 AM 26.6 °F 15.2 °F 19.4 °F 74% 29.65 in 10.0 mi NNW 13.8 mph - N/A   Overcast
5:15 AM 26.6 °F 14.3 °F 19.4 °F 74% 29.65 in 10.0 mi NNW 16.1 mph 20.7 mph N/A   Overcast
5:52 AM 26.6 °F 15.2 °F 17.6 °F 69% 29.66 in 10.0 mi NNW 13.8 mph - N/A   Scattered Clouds
6:14 AM 26.6 °F 14.7 °F 17.6 °F 69% 29.66 in 10.0 mi NNW 15.0 mph - N/A   Scattered Clouds
6:35 AM 24.8 °F 13.4 °F 17.6 °F 74% 29.67 in 10.0 mi NNW 12.7 mph - N/A   Scattered Clouds
6:53 AM 26.6 °F 14.7 °F 17.6 °F 69% 29.67 in 10.0 mi NNW 15.0 mph 20.7 mph N/A   Mostly Cloudy
7:15 AM 24.8 °F 11.5 °F 17.6 °F 74% 29.68 in 10.0 mi North 17.3 mph 21.9 mph N/A   Mostly Cloudy
7:35 AM 24.8 °F 13.4 °F 17.6 °F 74% 29.68 in 10.0 mi NNW 12.7 mph - N/A   Scattered Clouds
7:52 AM 26.6 °F 15.2 °F 17.6 °F 69% 29.68 in 10.0 mi NNW 13.8 mph 19.6 mph N/A   Scattered Clouds
8:14 AM 26.6 °F 14.7 °F 17.6 °F 69% 29.69 in 10.0 mi NNW 15.0 mph 18.4 mph N/A   Mostly Cloudy
8:34 AM 26.6 °F 12.7 °F 17.6 °F 69% 29.69 in 10.0 mi North 20.7 mph 27.6 mph N/A   Overcast
8:53 AM 26.6 °F 12.4 °F 17.6 °F 69% 29.69 in 10.0 mi North 21.9 mph 27.6 mph N/A   Overcast
9:11 AM 26.6 °F 12.7 °F 17.6 °F 69% 29.70 in 7.0 mi North 20.7 mph 32.2 mph N/A   Overcast
9:41 AM 28.4 °F 14.7 °F 17.6 °F 64% 29.70 in 10.0 mi North 21.9 mph 27.6 mph N/A   Overcast
10:17 AM 28.4 °F 15.8 °F 19.4 °F 69% 29.71 in 10.0 mi North 18.4 mph 23.0 mph N/A   Overcast
10:35 AM 28.4 °F 14.4 °F 17.6 °F 64% 29.72 in 10.0 mi North 23.0 mph 26.5 mph N/A   Overcast
10:52 AM 28.4 °F 15.4 °F 17.6 °F 64% 29.72 in 10.0 mi NNW 19.6 mph 26.5 mph N/A   Overcast
11:15 AM 30.2 °F 18.1 °F 17.6 °F 60% 29.73 in 10.0 mi North 18.4 mph 25.3 mph N/A   Mostly Cloudy
11:35 AM 30.2 °F 17.4 °F 17.6 °F 60% 29.74 in 10.0 mi NNW 20.7 mph 25.3 mph N/A   Scattered Clouds
11:53 AM 30.2 °F 17.4 °F 17.6 °F 60% 29.74 in 10.0 mi NNW 20.7 mph 26.5 mph N/A   Mostly Cloudy
12:15 PM 30.2 °F 17.8 °F 17.6 °F 60% 29.75 in 10.0 mi North 19.6 mph 27.6 mph N/A   Mostly Cloudy
12:35 PM 30.2 °F 18.1 °F 17.6 °F 60% 29.75 in 10.0 mi North 18.4 mph 24.2 mph N/A   Mostly Cloudy
12:53 PM 32.0 °F 19.8 °F 17.6 °F 55% - 10.0 mi NNW 20.7 mph 25.3 mph N/A   Overcast
1:15 PM 32.0 °F 21.6 °F 15.8 °F 51% 29.77 in 10.0 mi NNW 15.0 mph 25.3 mph N/A   Mostly Cloudy
1:34 PM 32.0 °F 19.8 °F 15.8 °F 51% 29.77 in 10.0 mi North 20.7 mph 24.2 mph N/A   Mostly Cloudy
1:52 PM 33.8 °F 23.2 °F 15.8 °F 48% 29.78 in 10.0 mi NNW 17.3 mph 25.3 mph N/A   Mostly Cloudy
2:14 PM 32.0 °F 20.8 °F 14.0 °F 48% 29.78 in 10.0 mi North 17.3 mph 24.2 mph N/A   Scattered Clouds
2:35 PM 33.8 °F 23.5 °F 14.0 °F 44% 29.79 in 10.0 mi North 16.1 mph 27.6 mph N/A   Scattered Clouds
2:53 PM 33.8 °F 22.5 °F 10.4 °F 38% 29.80 in 10.0 mi NNW 19.6 mph 26.5 mph N/A   Clear
3:15 PM 33.8 °F 21.9 °F 10.4 °F 38% 29.80 in 10.0 mi NNW 21.9 mph 26.5 mph N/A   Clear
3:35 PM 33.8 °F 21.9 °F 12.2 °F 41% 29.81 in 10.0 mi NNW 21.9 mph 25.3 mph N/A   Scattered Clouds
3:52 PM 33.8 °F 23.5 °F 12.2 °F 41% 29.81 in 10.0 mi NNW 16.1 mph 21.9 mph N/A   Scattered Clouds
4:14 PM 33.8 °F 22.8 °F 12.2 °F 41% 29.82 in 10.0 mi NNW 18.4 mph 23.0 mph N/A   Clear
4:35 PM 32.0 °F 20.1 °F 12.2 °F 44% 29.83 in 10.0 mi NW 19.6 mph 28.8 mph N/A   Scattered Clouds
4:53 PM 32.0 °F 20.1 °F 12.2 °F 44% 29.84 in 10.0 mi NNW 19.6 mph 24.2 mph N/A   Scattered Clouds
5:15 PM 32.0 °F 21.2 °F 14.0 °F 48% 29.85 in 10.0 mi NNW 16.1 mph 25.3 mph N/A   Scattered Clouds
5:35 PM 32.0 °F 22.1 °F 12.2 °F 44% 29.86 in 10.0 mi NNW 13.8 mph 20.7 mph N/A   Clear
5:52 PM 30.2 °F 19.3 °F 12.2 °F 47% 29.87 in 10.0 mi NW 15.0 mph - N/A   Scattered Clouds
6:15 PM 30.2 °F 18.1 °F 14.0 °F 51% 29.87 in 10.0 mi NW 18.4 mph 24.2 mph N/A   Clear
6:35 PM 30.2 °F 18.9 °F 12.2 °F 47% 29.88 in 10.0 mi NW 16.1 mph 23.0 mph N/A   Clear
6:52 PM 30.2 °F 19.8 °F 14.0 °F 51% 29.89 in 10.0 mi NW 13.8 mph - N/A   Clear
7:15 PM 30.2 °F 19.3 °F 12.2 °F 47% 29.90 in 10.0 mi NW 15.0 mph 19.6 mph N/A   Clear
7:35 PM 28.4 °F 17.0 °F 12.2 °F 51% 29.91 in 10.0 mi NW 15.0 mph 19.6 mph N/A   Clear
7:52 PM 28.4 °F 17.0 °F 12.2 °F 51% 29.91 in 10.0 mi NW 15.0 mph - N/A   Clear
8:15 PM 26.6 °F 15.7 °F 12.2 °F 55% 29.92 in 10.0 mi NW 12.7 mph - N/A   Clear
8:35 PM 26.6 °F 16.8 °F 15.8 °F 64% 29.93 in 10.0 mi WNW 10.4 mph - N/A   Clear
8:52 PM 26.6 °F 14.7 °F 17.6 °F 69% 29.94 in 10.0 mi NW 15.0 mph - N/A   Clear
9:15 PM 26.6 °F 15.7 °F 17.6 °F 69% 29.95 in 10.0 mi NW 12.7 mph - N/A   Clear
9:35 PM 24.8 °F 12.9 °F 17.6 °F 74% 29.96 in 10.0 mi NW 13.8 mph - N/A   Clear
9:53 PM 24.8 °F 13.4 °F 17.6 °F 74% 29.97 in 10.0 mi NW 12.7 mph - N/A   Clear
10:15 PM 24.8 °F 14.0 °F 17.6 °F 74% 29.98 in 10.0 mi NW 11.5 mph - N/A   Clear
10:34 PM 23.0 °F 12.4 °F 17.6 °F 80% 29.98 in 10.0 mi NW 10.4 mph - N/A   Clear
10:53 PM 23.0 °F 12.4 °F 15.8 °F 74% 29.99 in 10.0 mi NW 10.4 mph - N/A   Clear
11:15 PM 21.2 °F 11.7 °F 15.8 °F 80% 29.99 in 10.0 mi NW 8.1 mph - N/A   Clear
11:35 PM 21.2 °F 11.7 °F 15.8 °F 80% 30.00 in 10.0 mi NW 8.1 mph - N/A   Clear